Time;durP1;ratioP1;P1;durP2;ratioP2;P2;SDS_P1;SDS_P2;PMS_P1;PMS_P2;Temp;Humidity;BMP_temperature;BMP_pressure;BME280_temperature;BME280_humidity;BME280_pressure;Samples;Min_cycle;Max_cycle;Signal;HPM_P1;HPM_P2
2021/12/18 00:02:00;;;;;;;3.67;1.23;;;6.60;99.90;;;;;;4891377;29;20111;-78
2021/12/18 00:04:26;;;;;;;2.90;1.30;;;6.80;99.90;;;;;;4908625;29;20050;-78
2021/12/18 00:06:52;;;;;;;16.80;1.83;;;6.60;99.90;;;;;;4892344;29;20096;-78
2021/12/18 00:09:18;;;;;;;20.60;2.17;;;6.50;99.90;;;;;;4892731;29;20835;-78
2021/12/18 00:11:45;;;;;;;4.50;1.23;;;6.50;99.90;;;;;;4887370;29;20080;-79
2021/12/18 00:14:11;;;;;;;9.98;1.30;;;6.50;99.90;;;;;;4892988;29;20096;-78
2021/12/18 00:16:37;;;;;;;11.90;1.17;;;6.50;99.90;;;;;;4892623;29;20053;-78
2021/12/18 00:19:03;;;;;;;2.83;0.80;;;6.50;99.90;;;;;;4907409;29;20681;-78
2021/12/18 00:21:30;;;;;;;2.30;0.88;;;7.40;99.90;;;;;;4892811;29;20068;-77
2021/12/18 00:23:56;;;;;;;6.15;0.90;;;6.50;99.90;;;;;;4892444;29;20052;-78
2021/12/18 00:26:22;;;;;;;10.65;1.30;;;6.50;99.90;;;;;;4890242;29;20116;-78
2021/12/18 00:28:48;;;;;;;5.97;1.13;;;6.50;99.90;;;;;;4892024;29;20580;-78
2021/12/18 00:31:14;;;;;;;2.53;0.95;;;6.80;99.90;;;;;;4891592;29;20084;-79
2021/12/18 00:33:40;;;;;;;15.88;1.58;;;6.60;99.90;;;;;;4908347;29;20124;-77
2021/12/18 00:36:05;;;;;;;2.50;1.15;;;6.50;99.90;;;;;;4887158;29;20334;-78
2021/12/18 00:38:31;;;;;;;8.77;1.13;;;7.50;99.90;;;;;;4887694;29;20127;-78
2021/12/18 00:43:37;;;;;;;;;;;6.50;99.90;;;;;;4886670;29;20491;-78
2021/12/18 00:46:02;;;;;;;8.82;1.20;;;6.50;99.90;;;;;;4891948;29;19930;-77
2021/12/18 00:48:28;;;;;;;13.63;1.30;;;6.50;99.90;;;;;;4892509;29;20048;-78
2021/12/18 00:50:54;;;;;;;10.45;1.58;;;7.10;99.90;;;;;;4886532;29;20415;-78
2021/12/18 00:53:20;;;;;;;10.07;1.45;;;6.40;99.90;;;;;;4891028;29;20096;-78
2021/12/18 00:55:46;;;;;;;9.45;1.25;;;6.40;99.90;;;;;;4892311;29;20051;-78
2021/12/18 00:58:12;;;;;;;7.78;1.23;;;6.90;99.90;;;;;;4891839;29;20044;-78
2021/12/18 01:00:40;;;;;;;11.90;1.20;;;6.30;99.90;;;;;;4892191;29;20112;-77
2021/12/18 01:03:14;;;;;;;22.83;1.95;;;6.30;99.90;;;;;;4906987;29;20263;-78
2021/12/18 01:05:40;;;;;;;4.00;1.48;;;6.30;99.90;;;;;;4893582;29;20395;-78
2021/12/18 01:08:06;;;;;;;6.30;1.73;;;6.30;99.90;;;;;;4870061;29;20237;-78
2021/12/18 01:11:11;;;;;;;17.00;1.80;;;6.30;99.90;;;;;;4876227;29;20545;-78
2021/12/18 01:13:47;;;;;;;10.50;1.70;;;7.00;99.90;;;;;;4890350;29;20136;-78
2021/12/18 01:16:19;;;;;;;4.53;1.40;;;6.30;99.90;;;;;;4877725;29;20103;-78
2021/12/18 01:24:13;;;;;;;4.00;1.10;;;6.20;99.90;;;;;;4884503;29;20076;-78
2021/12/18 01:26:39;;;;;;;8.80;1.30;;;6.20;99.90;;;;;;4890185;29;20143;-78
2021/12/18 01:29:05;;;;;;;9.43;1.70;;;6.20;99.90;;;;;;4875325;29;20044;-77
2021/12/18 01:31:30;;;;;;;5.97;1.23;;;6.20;99.90;;;;;;4891271;29;20055;-78
2021/12/18 01:33:56;;;;;;;10.43;1.60;;;6.30;99.90;;;;;;4890153;29;20052;-78
2021/12/18 01:36:22;;;;;;;8.45;1.33;;;6.20;99.90;;;;;;4876249;29;20052;-78
2021/12/18 01:38:48;;;;;;;5.78;1.40;;;6.30;99.90;;;;;;4891531;29;20813;-77
2021/12/18 01:41:15;;;;;;;4.88;1.17;;;6.30;99.90;;;;;;4890307;29;20123;-77
2021/12/18 01:46:42;;;;;;;21.00;2.38;;;6.30;99.90;;;;;;4890487;29;20411;-77
2021/12/18 01:52:19;;;;;;;50.15;4.68;;;6.30;99.90;;;;;;4904406;29;20081;-77
2021/12/18 01:54:46;;;;;;;18.38;3.38;;;6.30;99.90;;;;;;4906453;29;20570;-77
2021/12/18 01:57:13;;;;;;;44.65;4.88;;;6.50;99.90;;;;;;4884953;29;20430;-77
2021/12/18 01:59:44;;;;;;;66.07;5.43;;;6.30;99.90;;;;;;4890197;29;20099;-77
2021/12/18 02:02:11;;;;;;;41.72;4.72;;;6.30;99.90;;;;;;4890025;29;20049;-77
2021/12/18 02:04:37;;;;;;;52.42;4.30;;;6.30;99.90;;;;;;4885927;29;20574;-77
2021/12/18 02:07:04;;;;;;;24.52;3.30;;;6.40;99.90;;;;;;4889529;29;20048;-77
2021/12/18 02:09:51;;;;;;;53.22;4.05;;;6.30;99.90;;;;;;4891086;29;20044;-77
2021/12/18 02:12:18;;;;;;;24.80;2.95;;;6.40;99.90;;;;;;4889777;29;20063;-78
2021/12/18 02:20:24;;;;;;;6.03;1.73;;;6.40;99.90;;;;;;4890384;29;20136;-77
2021/12/18 02:22:54;;;;;;;20.33;2.50;;;6.40;99.90;;;;;;4889954;29;20055;-77
2021/12/18 02:25:21;;;;;;;11.48;2.10;;;6.40;99.90;;;;;;4906506;29;20052;-76
2021/12/18 02:27:48;;;;;;;10.40;1.85;;;6.40;99.90;;;;;;4891135;29;20056;-77
2021/12/18 02:30:15;;;;;;;15.25;1.90;;;6.40;99.90;;;;;;4890395;29;20056;-76
2021/12/18 02:32:41;;;;;;;9.48;2.03;;;6.40;99.90;;;;;;4888426;29;20053;-77
2021/12/18 02:35:09;;;;;;;17.60;2.28;;;6.40;99.90;;;;;;4890143;29;20056;-78
2021/12/18 02:37:40;;;;;;;13.07;1.70;;;6.40;99.90;;;;;;4905783;29;20045;-77
2021/12/18 02:42:52;;;;;;;7.97;1.83;;;6.50;99.90;;;;;;4891123;29;20048;-77
2021/12/18 02:45:18;;;;;;;5.53;1.60;;;6.40;99.90;;;;;;4889464;29;20147;-77
2021/12/18 02:47:47;;;;;;;6.40;1.70;;;6.40;99.90;;;;;;4891468;29;20403;-77
2021/12/18 02:50:13;;;;;;;4.20;1.45;;;6.40;99.90;;;;;;4889457;29;20125;-77
2021/12/18 02:52:39;;;;;;;4.43;1.70;;;6.50;99.90;;;;;;4884985;29;20123;-77
2021/12/18 02:55:05;;;;;;;6.30;2.08;;;6.40;99.90;;;;;;4886104;29;20053;-77
2021/12/18 02:57:31;;;;;;;6.47;2.30;;;6.50;99.90;;;;;;4889062;29;20048;-77
2021/12/18 02:59:59;;;;;;;13.00;2.92;;;6.50;99.90;;;;;;4888908;29;20057;-78
2021/12/18 03:02:26;;;;;;;13.50;2.72;;;6.60;99.90;;;;;;4890719;29;20056;-77
2021/12/18 03:04:57;;;;;;;11.35;3.00;;;6.70;99.90;;;;;;4890640;29;20057;-77
2021/12/18 03:07:25;;;;;;;6.35;2.40;;;6.50;99.90;;;;;;4891102;29;20049;-77
2021/12/18 03:19:05;;;;;;;7.57;2.75;;;6.50;99.90;;;;;;4886399;29;20041;-78
2021/12/18 03:25:44;;;;;;;6.07;2.03;;;6.60;99.90;;;;;;4890718;29;20075;-77
2021/12/18 03:28:10;;;;;;;20.73;3.22;;;6.60;99.90;;;;;;4885516;29;20645;-78
2021/12/18 03:30:36;;;;;;;7.15;2.45;;;6.60;99.90;;;;;;4888989;29;20040;-77
2021/12/18 03:33:04;;;;;;;6.25;2.55;;;6.60;99.90;;;;;;4890311;29;20063;-77
2021/12/18 03:35:30;;;;;;;6.25;2.25;;;6.60;99.90;;;;;;4890617;29;20098;-78
2021/12/18 03:37:56;;;;;;;12.23;2.25;;;6.70;99.90;;;;;;4891107;29;20056;-78
2021/12/18 03:40:24;;;;;;;9.13;1.88;;;6.70;99.90;;;;;;4889349;29;20054;-78
2021/12/18 03:42:50;;;;;;;9.07;2.10;;;6.70;99.90;;;;;;4906175;29;20511;-78
2021/12/18 03:45:17;;;;;;;8.43;2.00;;;6.70;99.90;;;;;;4888791;29;20080;-77
2021/12/18 03:47:44;;;;;;;6.70;1.90;;;6.70;99.90;;;;;;4909679;29;20057;-78
2021/12/18 03:50:10;;;;;;;7.03;1.60;;;6.70;99.90;;;;;;4877588;29;20049;-77
2021/12/18 03:52:36;;;;;;;9.48;1.80;;;6.70;99.90;;;;;;4877899;29;20080;-77
2021/12/18 03:55:02;;;;;;;4.95;1.63;;;6.70;99.90;;;;;;4887234;29;20129;-78
2021/12/18 03:57:28;;;;;;;5.18;1.55;;;6.70;99.90;;;;;;4893912;29;20055;-78
2021/12/18 03:59:55;;;;;;;6.07;2.00;;;6.70;99.90;;;;;;4893411;29;20048;-77
2021/12/18 04:02:21;;;;;;;21.13;3.33;;;6.80;99.90;;;;;;4892123;29;20057;-78
2021/12/18 04:04:47;;;;;;;8.13;2.55;;;6.80;99.90;;;;;;4887673;29;20048;-77
2021/12/18 04:07:14;;;;;;;11.63;2.42;;;6.80;99.90;;;;;;4886728;29;20102;-77
2021/12/18 04:09:40;;;;;;;15.75;2.90;;;6.80;99.90;;;;;;4908901;29;20056;-77
2021/12/18 04:12:07;;;;;;;6.78;2.47;;;6.80;99.90;;;;;;4892845;29;20466;-77
2021/12/18 04:14:33;;;;;;;9.32;2.47;;;6.80;99.90;;;;;;4892856;29;20131;-77
2021/12/18 04:16:58;;;;;;;8.48;2.67;;;6.80;99.90;;;;;;4892632;29;20203;-79
2021/12/18 04:19:24;;;;;;;5.03;2.10;;;6.80;99.90;;;;;;4892109;29;20529;-77
2021/12/18 04:21:51;;;;;;;6.68;2.38;;;6.80;99.90;;;;;;4892206;29;20048;-77
2021/12/18 04:24:16;;;;;;;18.55;3.30;;;6.80;99.90;;;;;;4908052;29;20048;-77
2021/12/18 04:26:42;;;;;;;13.95;3.50;;;7.00;99.90;;;;;;4892571;29;20079;-78
2021/12/18 04:29:08;;;;;;;10.50;3.05;;;6.80;99.90;;;;;;4892170;29;20056;-77
2021/12/18 04:31:38;;;;;;;9.23;3.00;;;6.90;99.90;;;;;;4892114;29;20045;-77
2021/12/18 04:34:05;;;;;;;8.80;3.33;;;6.80;99.90;;;;;;4885480;29;20048;-77
2021/12/18 04:36:31;;;;;;;10.35;3.47;;;7.00;99.90;;;;;;4891634;29;20709;-77
2021/12/18 04:38:57;;;;;;;8.43;3.22;;;6.90;99.90;;;;;;4908577;29;20584;-77
2021/12/18 04:41:35;;;;;;;8.20;2.95;;;6.90;99.90;;;;;;4891457;29;20088;-78
2021/12/18 04:44:01;;;;;;;6.80;2.33;;;7.00;99.90;;;;;;4908282;29;20045;-79
2021/12/18 04:46:27;;;;;;;4.13;1.85;;;6.80;99.90;;;;;;4886879;29;20103;-78
2021/12/18 04:48:53;;;;;;;4.82;1.70;;;6.80;99.90;;;;;;4888393;29;20192;-77
2021/12/18 04:51:18;;;;;;;3.33;1.20;;;6.80;99.90;;;;;;4890723;29;20119;-77
2021/12/18 04:53:44;;;;;;;2.80;1.20;;;6.90;99.90;;;;;;4891176;29;20049;-77
2021/12/18 04:56:10;;;;;;;2.95;1.17;;;6.90;99.90;;;;;;4892250;29;20402;-77
2021/12/18 04:58:36;;;;;;;3.40;1.30;;;6.80;99.90;;;;;;4892731;29;20052;-77
2021/12/18 05:01:02;;;;;;;5.60;1.80;;;6.80;99.90;;;;;;4890564;29;20096;-79
2021/12/18 05:03:28;;;;;;;4.68;1.30;;;7.00;99.90;;;;;;4892173;29;20048;-77
2021/12/18 05:05:54;;;;;;;5.38;1.70;;;6.80;99.90;;;;;;4877213;29;20064;-77
2021/12/18 05:08:20;;;;;;;6.20;1.95;;;6.80;99.90;;;;;;4887088;29;20049;-77
2021/12/18 05:10:46;;;;;;;4.35;1.60;;;6.80;99.90;;;;;;4885958;29;20044;-77
2021/12/18 05:13:12;;;;;;;8.73;2.20;;;6.80;99.90;;;;;;4875698;29;20483;-77
2021/12/18 05:15:38;;;;;;;6.60;1.90;;;6.80;99.90;;;;;;4885768;29;20072;-77
2021/12/18 05:18:04;;;;;;;9.02;2.42;;;6.90;99.90;;;;;;4907270;29;20095;-79
2021/12/18 05:20:30;;;;;;;9.43;2.58;;;6.90;99.90;;;;;;4891110;29;20053;-78
2021/12/18 05:22:56;;;;;;;14.32;3.17;;;6.90;99.90;;;;;;4892202;29;20068;-78
2021/12/18 05:25:21;;;;;;;5.93;2.40;;;6.90;99.90;;;;;;4892105;29;20071;-78
2021/12/18 05:27:47;;;;;;;5.20;2.00;;;6.90;99.90;;;;;;4892039;29;20057;-77
2021/12/18 05:30:13;;;;;;;11.32;2.38;;;6.90;99.90;;;;;;4900747;29;20076;-78
2021/12/18 05:32:39;;;;;;;12.15;2.90;;;6.90;99.90;;;;;;4907149;29;20063;-78
2021/12/18 05:35:05;;;;;;;4.70;2.30;;;6.90;99.90;;;;;;4885001;29;20044;-79
2021/12/18 05:40:14;;;;;;;10.80;2.33;;;7.10;99.90;;;;;;4887326;29;20056;-79
2021/12/18 05:42:40;;;;;;;27.45;2.75;;;6.90;99.90;;;;;;4891700;29;20056;-77
2021/12/18 05:45:07;;;;;;;14.80;2.40;;;6.90;99.90;;;;;;4891350;29;20115;-78
2021/12/18 05:47:34;;;;;;;21.00;2.22;;;6.90;99.90;;;;;;4890701;29;20105;-78
2021/12/18 05:49:59;;;;;;;11.50;1.58;;;6.80;99.90;;;;;;4887878;29;20439;-77
2021/12/18 05:52:26;;;;;;;33.83;2.72;;;6.80;99.90;;;;;;4886342;29;20116;-77
2021/12/18 05:54:51;;;;;;;14.00;2.67;;;7.00;99.90;;;;;;4891355;29;20179;-78
2021/12/18 05:57:17;;;;;;;10.05;1.95;;;6.90;99.90;;;;;;4891369;29;20060;-77
2021/12/18 05:59:44;;;;;;;6.70;2.20;;;7.50;99.90;;;;;;4890964;29;20147;-77
2021/12/18 06:02:10;;;;;;;14.23;2.90;;;6.80;99.90;;;;;;4886111;29;20100;-77
2021/12/18 06:04:36;;;;;;;19.88;3.17;;;6.90;99.90;;;;;;4907266;29;20103;-77
2021/12/18 06:07:06;;;;;;;17.15;2.92;;;6.90;99.90;;;;;;4871810;29;20495;-77
2021/12/18 06:09:35;;;;;;;29.95;3.00;;;6.80;99.90;;;;;;4884785;29;20072;-77
2021/12/18 06:12:02;;;;;;;12.98;2.47;;;7.00;99.90;;;;;;4905534;29;20051;-78
2021/12/18 06:14:28;;;;;;;17.92;2.53;;;6.80;99.90;;;;;;4901818;29;20041;-78
2021/12/18 06:16:54;;;;;;;17.23;2.53;;;7.50;99.90;;;;;;4889290;29;20140;-78
2021/12/18 06:19:20;;;;;;;12.27;2.70;;;6.90;99.90;;;;;;4889610;29;20516;-78
2021/12/18 06:21:47;;;;;;;13.70;2.85;;;7.40;99.90;;;;;;4890392;29;20107;-78
2021/12/18 06:24:13;;;;;;;7.93;2.38;;;6.90;99.90;;;;;;4889585;29;20056;-78
2021/12/18 06:26:39;;;;;;;26.83;4.03;;;6.90;99.90;;;;;;4891002;29;20052;-77
2021/12/18 06:29:04;;;;;;;17.17;3.70;;;6.90;99.90;;;;;;4890201;29;20062;-78
2021/12/18 06:31:31;;;;;;;11.65;3.33;;;6.90;99.90;;;;;;4890162;29;20482;-80
2021/12/18 06:33:57;;;;;;;19.52;3.60;;;6.90;99.90;;;;;;4905761;29;20065;-80
2021/12/18 06:36:23;;;;;;;13.70;3.75;;;6.90;99.90;;;;;;4889902;29;20048;-80
2021/12/18 06:38:48;;;;;;;10.35;2.90;;;7.00;99.90;;;;;;4886510;29;20048;-80
2021/12/18 06:41:14;;;;;;;10.32;2.50;;;6.90;99.90;;;;;;4868650;29;20196;-80
2021/12/18 06:43:40;;;;;;;10.90;2.72;;;7.80;99.90;;;;;;4887336;29;20084;-79
2021/12/18 06:46:06;;;;;;;12.38;2.97;;;6.90;99.90;;;;;;4888487;29;20123;-78
2021/12/18 06:48:33;;;;;;;8.98;2.80;;;7.00;99.90;;;;;;4885653;29;20048;-79
2021/12/18 06:50:59;;;;;;;10.73;3.05;;;7.00;99.90;;;;;;4871972;29;20912;-79
2021/12/18 06:53:24;;;;;;;11.13;3.13;;;7.00;99.90;;;;;;4888623;29;20048;-79
2021/12/18 06:55:50;;;;;;;8.52;2.88;;;7.00;99.90;;;;;;4890705;29;20049;-79
2021/12/18 06:58:16;;;;;;;12.73;2.92;;;7.00;99.90;;;;;;4888801;29;20568;-79
2021/12/18 07:00:42;;;;;;;9.27;2.80;;;7.40;99.90;;;;;;4889389;29;20048;-79
2021/12/18 07:03:08;;;;;;;6.53;2.58;;;7.00;99.90;;;;;;4890523;29;20385;-77
2021/12/18 07:05:34;;;;;;;11.85;2.80;;;7.00;99.90;;;;;;4867338;29;20452;-80
2021/12/18 07:07:59;;;;;;;7.72;3.17;;;7.00;99.90;;;;;;4889864;29;20665;-79
2021/12/18 07:10:25;;;;;;;12.75;4.13;;;7.00;99.90;;;;;;4888994;29;20063;-79
2021/12/18 07:12:51;;;;;;;15.88;4.63;;;7.00;99.90;;;;;;4889092;29;20049;-81
2021/12/18 07:15:17;;;;;;;9.88;3.80;;;7.30;99.90;;;;;;4889048;29;20096;-81
2021/12/18 07:17:43;;;;;;;9.75;3.58;;;7.00;99.90;;;;;;4883899;29;20052;-82
2021/12/18 07:20:10;;;;;;;9.30;3.60;;;7.00;99.90;;;;;;4892172;29;20049;-81
2021/12/18 07:22:36;;;;;;;7.75;3.08;;;7.00;99.90;;;;;;4888224;29;20056;-81
2021/12/18 07:25:03;;;;;;;12.30;3.90;;;7.00;99.90;;;;;;4878250;29;20376;-81
2021/12/18 07:27:29;;;;;;;12.80;3.75;;;7.00;99.90;;;;;;4893458;29;20119;-80
2021/12/18 07:29:55;;;;;;;12.50;3.97;;;7.10;99.90;;;;;;4892098;29;20041;-80
2021/12/18 07:32:20;;;;;;;16.45;3.85;;;7.30;99.90;;;;;;4887513;29;20045;-81
2021/12/18 07:34:46;;;;;;;12.55;3.42;;;7.10;99.90;;;;;;4893794;29;20066;-79
2021/12/18 07:37:12;;;;;;;11.02;3.92;;;7.10;99.90;;;;;;4892509;29;20059;-81
2021/12/18 07:39:38;;;;;;;15.27;4.15;;;7.30;99.90;;;;;;4892392;29;20049;-80
2021/12/18 07:42:04;;;;;;;20.50;4.32;;;7.10;99.90;;;;;;4893875;29;20052;-80
2021/12/18 07:44:30;;;;;;;14.63;3.90;;;7.10;99.90;;;;;;4892385;29;20562;-79
2021/12/18 07:46:55;;;;;;;16.08;4.30;;;8.00;99.90;;;;;;4878620;29;20044;-75
2021/12/18 07:49:21;;;;;;;10.35;3.95;;;7.10;99.90;;;;;;4887876;29;20558;-78
2021/12/18 07:51:47;;;;;;;8.77;3.70;;;7.20;99.90;;;;;;4895055;29;20045;-78
2021/12/18 07:54:12;;;;;;;12.38;3.88;;;7.20;99.90;;;;;;4872207;29;20041;-78
2021/12/18 07:56:38;;;;;;;17.92;4.80;;;7.20;99.90;;;;;;4893888;29;20067;-78
2021/12/18 07:59:04;;;;;;;15.55;3.80;;;7.20;99.90;;;;;;4895811;29;20139;-79
2021/12/18 08:01:30;;;;;;;17.98;4.80;;;7.20;99.90;;;;;;4893909;29;20048;-79
2021/12/18 08:03:55;;;;;;;13.95;4.65;;;7.20;99.90;;;;;;4888701;29;20044;-79
2021/12/18 08:06:21;;;;;;;16.77;4.90;;;7.20;99.90;;;;;;4892967;29;20060;-79
2021/12/18 08:08:48;;;;;;;12.07;4.65;;;7.20;99.90;;;;;;4891847;29;20049;-79
2021/12/18 08:11:15;;;;;;;14.65;5.13;;;7.40;99.90;;;;;;4887826;29;20103;-79
2021/12/18 08:13:41;;;;;;;18.70;4.78;;;7.30;99.90;;;;;;4893596;29;20084;-78
2021/12/18 08:16:06;;;;;;;16.25;5.22;;;7.30;99.90;;;;;;4894114;29;20083;-80
2021/12/18 08:18:32;;;;;;;21.73;5.78;;;7.30;99.90;;;;;;4893462;29;20554;-78
2021/12/18 08:20:58;;;;;;;18.60;6.05;;;7.30;99.90;;;;;;4892816;29;20487;-79
2021/12/18 08:23:24;;;;;;;16.88;5.65;;;7.30;99.90;;;;;;4891825;29;20439;-79
2021/12/18 08:25:50;;;;;;;21.02;5.88;;;7.40;99.90;;;;;;4876427;29;20056;-79
2021/12/18 08:28:16;;;;;;;20.95;6.38;;;7.40;99.90;;;;;;4877754;29;20052;-79
2021/12/18 08:30:42;;;;;;;22.25;7.22;;;7.40;99.90;;;;;;4889786;29;20107;-79
2021/12/18 08:33:08;;;;;;;14.18;5.55;;;7.40;99.90;;;;;;4887240;29;20740;-79
2021/12/18 08:35:34;;;;;;;13.57;5.60;;;7.40;99.90;;;;;;4887455;29;20048;-79
2021/12/18 08:38:01;;;;;;;12.52;5.43;;;7.40;99.90;;;;;;4886669;29;20056;-79
2021/12/18 08:40:28;;;;;;;11.75;4.68;;;7.50;99.90;;;;;;4885704;29;20058;-79
2021/12/18 08:42:54;;;;;;;10.95;4.53;;;7.50;99.90;;;;;;4891060;29;20049;-79
2021/12/18 08:45:20;;;;;;;10.60;4.32;;;7.50;99.90;;;;;;4892153;29;20047;-80
2021/12/18 08:47:46;;;;;;;7.45;3.67;;;7.50;99.90;;;;;;4908355;29;20056;-79
2021/12/18 08:50:15;;;;;;;7.93;3.72;;;7.50;99.90;;;;;;4891620;29;20084;-79
2021/12/18 08:52:41;;;;;;;7.88;3.85;;;7.60;99.90;;;;;;4885538;29;20190;-79
2021/12/18 08:55:08;;;;;;;7.82;4.05;;;7.60;99.90;;;;;;4909461;29;20507;-79
2021/12/18 08:57:33;;;;;;;6.40;3.80;;;7.60;99.90;;;;;;4893411;29;20045;-79
2021/12/18 08:59:59;;;;;;;7.97;3.97;;;7.60;99.90;;;;;;4876955;29;20048;-79
2021/12/18 09:02:25;;;;;;;5.47;4.15;;;7.70;99.90;;;;;;4893571;29;20049;-79
2021/12/18 09:04:51;;;;;;;5.15;3.60;;;7.70;99.90;;;;;;4893179;29;20084;-79
2021/12/18 09:07:17;;;;;;;6.07;3.42;;;7.70;99.90;;;;;;4894500;29;20052;-80
2021/12/18 09:09:42;;;;;;;5.22;3.53;;;7.70;99.90;;;;;;4893131;29;20060;-77
2021/12/18 09:12:10;;;;;;;5.72;3.30;;;7.70;99.90;;;;;;4893437;29;20056;-80
2021/12/18 09:14:36;;;;;;;10.60;4.68;;;7.80;99.90;;;;;;4907399;29;20045;-78
2021/12/18 09:17:02;;;;;;;6.38;3.85;;;7.80;99.90;;;;;;4893130;29;20071;-78
2021/12/18 09:19:28;;;;;;;6.57;3.95;;;7.80;99.90;;;;;;4892260;29;20088;-80
2021/12/18 09:21:55;;;;;;;8.27;4.10;;;7.80;99.90;;;;;;4893384;29;20080;-78
2021/12/18 09:24:21;;;;;;;7.47;3.47;;;7.80;99.90;;;;;;4891920;29;20049;-79
2021/12/18 09:26:48;;;;;;;8.70;3.70;;;7.90;99.90;;;;;;4892183;29;20075;-78
2021/12/18 09:29:14;;;;;;;9.13;3.60;;;7.90;99.90;;;;;;4886226;29;20376;-78
2021/12/18 09:31:39;;;;;;;8.13;3.55;;;7.90;99.90;;;;;;4892365;29;20052;-78
2021/12/18 09:34:05;;;;;;;7.57;3.92;;;8.00;99.90;;;;;;4870385;29;20107;-78
2021/12/18 09:36:31;;;;;;;7.90;3.53;;;8.00;99.90;;;;;;4891329;29;20071;-78
2021/12/18 09:38:57;;;;;;;5.93;3.45;;;8.00;99.90;;;;;;4892456;29;20047;-79
2021/12/18 09:41:24;;;;;;;7.03;3.90;;;8.00;99.90;;;;;;4875967;29;20048;-79
2021/12/18 09:43:51;;;;;;;9.00;3.72;;;8.50;99.90;;;;;;4892694;29;20052;-78
2021/12/18 09:46:17;;;;;;;7.10;3.45;;;8.10;99.90;;;;;;4874268;29;20054;-77
2021/12/18 09:48:44;;;;;;;8.02;3.58;;;8.10;99.90;;;;;;4891541;29;20060;-78
2021/12/18 09:51:20;;;;;;;11.43;5.50;;;8.10;99.90;;;;;;4908145;29;20087;-79
2021/12/18 09:53:46;;;;;;;8.80;4.50;;;8.10;99.90;;;;;;4892228;29;20048;-79
2021/12/18 09:56:12;;;;;;;9.07;4.10;;;8.10;99.90;;;;;;4908263;29;20503;-81
2021/12/18 09:58:38;;;;;;;6.47;3.33;;;8.20;99.90;;;;;;4892416;29;20130;-80
2021/12/18 10:01:04;;;;;;;7.78;4.35;;;8.20;99.90;;;;;;4892751;29;20061;-78
2021/12/18 10:03:51;;;;;;;9.25;5.75;;;8.20;99.90;;;;;;4885674;29;20045;-79
2021/12/18 10:06:44;;;;;;;10.32;5.25;;;8.20;99.90;;;;;;4885394;29;20044;-80
2021/12/18 10:09:17;;;;;;;11.52;4.63;;;8.20;99.90;;;;;;4892954;29;20056;-81
2021/12/18 10:12:02;;;;;;;12.45;4.35;;;8.20;99.90;;;;;;4892810;29;20056;-80
2021/12/18 10:14:41;;;;;;;8.23;3.92;;;8.30;99.90;;;;;;4885410;29;20052;-81
2021/12/18 10:17:28;;;;;;;7.82;3.03;;;8.30;99.90;;;;;;4892483;29;20448;-81
2021/12/18 10:20:16;;;;;;;9.73;3.92;;;8.30;99.90;;;;;;4891937;29;20105;-82
2021/12/18 10:22:53;;;;;;;10.30;4.18;;;8.30;99.90;;;;;;4891500;29;20062;-76
2021/12/18 10:25:23;;;;;;;8.02;3.80;;;8.40;99.90;;;;;;4892586;29;20128;-78
2021/12/18 10:28:16;;;;;;;9.38;4.90;;;8.40;99.90;;;;;;4892444;29;20048;-78
2021/12/18 10:30:47;;;;;;;8.85;4.25;;;8.40;99.90;;;;;;4883817;29;20147;-78
2021/12/18 10:33:13;;;;;;;8.73;4.05;;;8.40;99.90;;;;;;4891451;29;20109;-78
2021/12/18 10:35:43;;;;;;;7.82;3.75;;;8.50;99.90;;;;;;4891294;29;20460;-78
2021/12/18 10:38:29;;;;;;;10.25;4.03;;;8.40;99.90;;;;;;4892811;29;20076;-77
2021/12/18 10:40:55;;;;;;;7.05;3.95;;;8.40;99.90;;;;;;4877072;29;20049;-77
2021/12/18 10:43:21;;;;;;;6.57;4.20;;;8.50;99.90;;;;;;4885444;29;20048;-78
2021/12/18 10:45:47;;;;;;;10.23;3.80;;;8.50;99.90;;;;;;4892329;29;20092;-78
2021/12/18 10:48:14;;;;;;;7.03;3.38;;;8.50;99.90;;;;;;4876769;29;20056;-78
2021/12/18 10:50:51;;;;;;;7.57;2.85;;;8.50;99.90;;;;;;4906994;29;20095;-78
2021/12/18 10:53:20;;;;;;;10.23;3.50;;;8.50;99.90;;;;;;4892137;29;20546;-77
2021/12/18 10:55:47;;;;;;;8.27;3.58;;;8.50;99.90;;;;;;4884711;29;20053;-78
2021/12/18 10:58:21;;;;;;;9.73;4.30;;;8.50;99.90;;;;;;4905471;29;20104;-78
2021/12/18 11:00:50;;;;;;;8.77;3.75;;;8.50;99.90;;;;;;4886477;29;20056;-79
2021/12/18 11:03:20;;;;;;;7.75;3.40;;;8.60;99.90;;;;;;4905380;29;20056;-78
2021/12/18 11:06:09;;;;;;;6.97;2.90;;;8.60;99.90;;;;;;4889694;29;20781;-78
2021/12/18 11:08:48;;;;;;;8.77;3.08;;;8.60;99.90;;;;;;4870045;29;20107;-78
2021/12/18 11:13:58;;;;;;;4.70;2.20;;;8.60;99.90;;;;;;4877397;29;20055;-79
2021/12/18 11:16:25;;;;;;;5.47;2.42;;;9.00;99.90;;;;;;4892381;29;20049;-77
2021/12/18 11:18:54;;;;;;;7.00;2.70;;;8.70;99.90;;;;;;4898839;29;20049;-79
2021/12/18 11:21:23;;;;;;;6.57;2.75;;;8.70;99.90;;;;;;4908164;29;20048;-78
2021/12/18 11:24:15;;;;;;;7.82;3.13;;;8.70;99.90;;;;;;4906882;29;20057;-78
2021/12/18 11:26:55;;;;;;;7.72;3.33;;;8.70;99.90;;;;;;4890344;29;20056;-81
2021/12/18 11:29:28;;;;;;;9.10;4.30;;;8.80;99.90;;;;;;4900085;29;20045;-78
2021/12/18 11:31:55;;;;;;;7.68;3.85;;;8.80;99.90;;;;;;4890601;29;20067;-78
2021/12/18 11:34:21;;;;;;;7.85;3.75;;;8.80;99.90;;;;;;4891420;29;20059;-78
2021/12/18 11:36:49;;;;;;;6.07;3.50;;;8.80;99.90;;;;;;4884329;29;20053;-77
2021/12/18 11:39:19;;;;;;;8.60;3.65;;;8.80;99.90;;;;;;4892110;29;20080;-78
2021/12/18 11:41:53;;;;;;;6.18;3.30;;;8.80;99.90;;;;;;4892006;29;20135;-78
2021/12/18 11:44:43;;;;;;;7.82;3.65;;;8.80;99.90;;;;;;4889262;29;20101;-78
2021/12/18 11:47:38;;;;;;;6.65;4.13;;;8.90;99.90;;;;;;4905781;29;20112;-78
2021/12/18 11:50:22;;;;;;;7.38;4.05;;;8.90;99.90;;;;;;4890109;29;20454;-81
2021/12/18 11:53:09;;;;;;;8.55;3.95;;;8.90;99.90;;;;;;4889370;29;21258;-82
2021/12/18 11:55:58;;;;;;;8.18;3.78;;;8.90;99.90;;;;;;4889925;29;20057;-83
2021/12/18 11:58:35;;;;;;;10.40;3.58;;;8.80;99.90;;;;;;4906456;29;20048;-81
2021/12/18 12:01:12;;;;;;;5.88;3.00;;;8.80;99.90;;;;;;4905797;29;20060;-81
2021/12/18 12:03:55;;;;;;;8.95;3.22;;;8.30;99.90;;;;;;4888144;29;20100;-81
2021/12/18 12:06:30;;;;;;;8.82;3.20;;;8.80;99.90;;;;;;4887996;29;20072;-78
2021/12/18 12:09:13;;;;;;;7.35;2.35;;;8.80;99.90;;;;;;4894985;29;20444;-78
2021/12/18 12:11:57;;;;;;;6.20;2.58;;;8.80;99.90;;;;;;4895227;29;20060;-78
2021/12/18 12:14:28;;;;;;;8.25;2.78;;;8.80;99.90;;;;;;4894060;29;20053;-78
2021/12/18 12:16:58;;;;;;;11.45;3.10;;;8.80;99.90;;;;;;4888327;29;20298;-78
2021/12/18 12:19:34;;;;;;;7.03;2.58;;;8.80;99.90;;;;;;4908543;29;20080;-77
2021/12/18 12:22:00;;;;;;;;;;;8.80;99.90;;;;;;4895312;29;20049;-77
2021/12/18 12:24:32;;;;;;;12.07;3.63;;;8.70;99.90;;;;;;4890540;29;19923;-77
2021/12/18 12:27:35;;;;;;;8.30;3.55;;;8.80;99.90;;;;;;4894801;29;20060;-78
2021/12/18 12:30:42;;;;;;;9.27;3.53;;;8.70;99.90;;;;;;4894720;29;20053;-78
2021/12/18 12:33:11;;;;;;;10.40;3.58;;;8.70;99.90;;;;;;4902920;29;20219;-77
2021/12/18 12:35:58;;;;;;;11.82;3.88;;;8.70;99.90;;;;;;4887649;29;20079;-79
2021/12/18 12:38:26;;;;;;;9.40;4.15;;;8.70;99.90;;;;;;4909321;29;20080;-78
2021/12/18 12:40:56;;;;;;;9.13;4.47;;;8.60;99.90;;;;;;4893431;29;20483;-77
2021/12/18 12:43:27;;;;;;;10.70;4.25;;;8.60;99.90;;;;;;4888626;29;20048;-78
2021/12/18 12:45:58;;;;;;;10.18;3.85;;;8.60;99.90;;;;;;4894617;29;20216;-77
2021/12/18 12:48:24;;;;;;;9.35;5.13;;;8.60;99.90;;;;;;4894009;29;20514;-77
2021/12/18 12:50:58;;;;;;;11.65;4.38;;;8.70;99.90;;;;;;4886668;29;20052;-77
2021/12/18 12:53:51;;;;;;;7.18;3.88;;;8.60;99.90;;;;;;4893402;29;20060;-78
2021/12/18 12:56:20;;;;;;;11.55;4.22;;;8.60;99.90;;;;;;4871449;29;20060;-77
2021/12/18 12:58:47;;;;;;;9.20;5.28;;;8.60;99.90;;;;;;4893253;29;20053;-78
2021/12/18 13:01:39;;;;;;;9.43;4.82;;;8.60;99.90;;;;;;4894472;29;20062;-78
2021/12/18 13:04:05;;;;;;;7.85;3.70;;;8.60;99.90;;;;;;4892222;29;20068;-80
2021/12/18 13:06:31;;;;;;;6.70;4.32;;;8.50;99.90;;;;;;4894583;29;20056;-78
2021/12/18 13:08:56;;;;;;;9.27;3.80;;;8.50;99.90;;;;;;4908706;29;20059;-78
2021/12/18 13:11:24;;;;;;;7.38;3.85;;;8.50;99.90;;;;;;4894469;29;20052;-77
2021/12/18 13:13:53;;;;;;;6.05;3.65;;;8.50;99.90;;;;;;4893231;29;20053;-78
2021/12/18 13:16:22;;;;;;;10.30;3.75;;;8.50;99.90;;;;;;4887569;29;20073;-77
2021/12/18 13:18:54;;;;;;;9.70;5.07;;;8.40;99.90;;;;;;4907831;29;20143;-78
2021/12/18 13:21:31;;;;;;;8.85;4.60;;;8.40;99.90;;;;;;4893198;29;20576;-78
2021/12/18 13:24:08;;;;;;;8.88;4.50;;;8.40;99.90;;;;;;4892983;29;20645;-77
2021/12/18 13:26:43;;;;;;;6.45;3.90;;;8.40;99.90;;;;;;4894375;29;20056;-78
2021/12/18 13:29:21;;;;;;;7.88;3.92;;;8.40;99.90;;;;;;4892982;29;20135;-78
2021/12/18 13:31:55;;;;;;;10.13;5.22;;;8.40;99.90;;;;;;4886962;29;20056;-81
2021/12/18 13:34:36;;;;;;;9.70;4.47;;;8.40;99.90;;;;;;4890832;29;20104;-78
2021/12/18 13:37:07;;;;;;;7.50;4.05;;;8.40;99.90;;;;;;4886526;29;20112;-77
2021/12/18 13:39:39;;;;;;;11.27;4.13;;;8.30;99.90;;;;;;4885902;29;20055;-77
2021/12/18 13:42:25;;;;;;;9.02;4.15;;;8.30;99.90;;;;;;4886285;29;20071;-78
2021/12/18 13:44:59;;;;;;;8.57;4.30;;;8.30;99.90;;;;;;4875732;29;20096;-78